createdAt,value
2018-10-18T00:01:36.281Z,11.81
2018-10-18T00:04:07.873Z,11.79
2018-10-18T00:06:38.549Z,11.75
2018-10-18T00:09:14.392Z,11.70
2018-10-18T00:11:44.233Z,11.67
2018-10-18T00:14:14.592Z,11.62
2018-10-18T00:16:44.477Z,11.60
2018-10-18T00:19:14.448Z,11.54
2018-10-18T00:21:44.646Z,11.52
2018-10-18T00:24:15.463Z,11.51
2018-10-18T00:26:46.440Z,11.47
2018-10-18T00:29:17.830Z,11.44
2018-10-18T00:31:48.762Z,11.41
2018-10-18T00:34:19.488Z,11.41
2018-10-18T00:36:50.731Z,11.35
2018-10-18T00:39:21.468Z,11.27
2018-10-18T00:41:52.864Z,11.27
2018-10-18T00:44:23.608Z,11.25
2018-10-18T00:46:54.486Z,11.23
2018-10-18T00:49:25.600Z,11.20
2018-10-18T00:51:56.601Z,11.20
2018-10-18T00:54:27.445Z,11.18
2018-10-18T00:56:58.884Z,11.17
2018-10-18T00:59:29.522Z,11.13
2018-10-18T01:02:01.304Z,11.09
2018-10-18T01:04:31.603Z,11.07
2018-10-18T01:07:02.440Z,11.07
2018-10-18T01:09:33.525Z,11.07
2018-10-18T01:12:04.472Z,11.06
2018-10-18T01:14:35.689Z,11.04
2018-10-18T01:17:06.919Z,11.00
2018-10-18T01:19:38.779Z,10.98
2018-10-18T01:22:08.800Z,10.96
2018-10-18T01:24:39.492Z,10.96
2018-10-18T01:27:11.209Z,10.96
2018-10-18T01:29:41.659Z,11.01
2018-10-18T01:32:12.650Z,11.06
2018-10-18T01:34:43.541Z,10.99
2018-10-18T01:37:14.517Z,10.91
2018-10-18T01:39:45.392Z,10.69
2018-10-18T01:42:16.844Z,10.72
2018-10-18T01:44:47.604Z,10.71
2018-10-18T01:47:18.514Z,10.70
2018-10-18T01:49:49.831Z,10.69
2018-10-18T01:52:20.650Z,10.68
2018-10-18T01:54:51.370Z,10.64
2018-10-18T01:57:22.862Z,10.63
2018-10-18T01:59:53.567Z,10.62
2018-10-18T02:02:24.456Z,10.59
2018-10-18T02:04:55.572Z,10.57
2018-10-18T02:07:27.089Z,10.54
2018-10-18T02:09:57.545Z,10.53
2018-10-18T02:12:28.381Z,10.50
2018-10-18T02:14:59.705Z,10.56
2018-10-18T02:17:31.019Z,10.49
2018-10-18T02:20:01.504Z,10.39
2018-10-18T02:22:32.589Z,10.34
2018-10-18T02:25:03.383Z,10.31
2018-10-18T02:27:34.624Z,10.04
2018-10-18T02:30:06.260Z,10.20
2018-10-18T02:32:37.832Z,10.12
2018-10-18T02:35:07.701Z,10.22
2018-10-18T02:37:38.842Z,10.21
2018-10-18T02:40:09.536Z,10.20
2018-10-18T02:42:40.785Z,10.20
2018-10-18T02:45:11.573Z,10.18
2018-10-18T02:47:42.981Z,9.43
2018-10-18T02:50:13.514Z,10.13
2018-10-18T02:52:44.865Z,10.11
2018-10-18T02:55:15.545Z,10.10
2018-10-18T02:57:46.807Z,10.10
2018-10-18T03:00:17.622Z,10.08
2018-10-18T03:02:48.664Z,10.07
2018-10-18T03:05:19.750Z,10.05
2018-10-18T03:07:50.610Z,10.03
2018-10-18T03:10:21.337Z,10.01
2018-10-18T03:12:52.777Z,9.99
2018-10-18T03:15:23.593Z,9.98
2018-10-18T03:17:54.484Z,9.97
2018-10-18T03:20:25.643Z,9.93
2018-10-18T03:22:56.473Z,9.92
2018-10-18T03:25:27.615Z,9.90
2018-10-18T03:27:58.502Z,9.88
2018-10-18T03:30:29.301Z,9.86
2018-10-18T03:33:00.805Z,9.83
2018-10-18T03:35:31.888Z,9.80
2018-10-18T03:38:02.778Z,9.78
2018-10-18T03:40:33.481Z,9.77
2018-10-18T03:43:04.676Z,9.77
2018-10-18T03:45:35.540Z,9.74
2018-10-18T03:48:06.689Z,9.73
2018-10-18T03:50:37.442Z,9.72
2018-10-18T03:53:08.726Z,9.68
2018-10-18T03:55:39.581Z,9.56
2018-10-18T03:58:10.613Z,9.40
2018-10-18T04:00:41.364Z,9.47
2018-10-18T04:03:12.946Z,9.49
2018-10-18T04:05:43.549Z,9.49
2018-10-18T04:08:14.512Z,9.50
2018-10-18T04:10:45.282Z,9.51
2018-10-18T04:13:17.313Z,9.52
2018-10-18T04:15:47.317Z,9.53
2018-10-18T04:18:18.811Z,9.54
2018-10-18T04:20:49.556Z,9.54
2018-10-18T04:23:25.237Z,9.53
2018-10-18T04:25:55.384Z,9.54
2018-10-18T04:28:25.112Z,9.54
2018-10-18T04:30:55.832Z,9.55
2018-10-18T04:33:25.561Z,9.53
2018-10-18T04:35:55.544Z,9.41
2018-10-18T04:38:26.691Z,9.49
2018-10-18T04:40:57.697Z,9.49
2018-10-18T04:43:28.454Z,9.45
2018-10-18T04:45:59.840Z,9.44
2018-10-18T04:48:30.749Z,9.40
2018-10-18T04:51:01.989Z,9.38
2018-10-18T04:53:32.769Z,9.34
2018-10-18T04:56:03.990Z,9.32
2018-10-18T04:58:34.629Z,9.31
2018-10-18T05:01:05.584Z,9.29
2018-10-18T05:03:36.448Z,9.28
2018-10-18T05:06:07.759Z,9.27
2018-10-18T05:08:38.471Z,9.25
2018-10-18T05:11:09.464Z,9.24
2018-10-18T05:13:40.301Z,9.23
2018-10-18T05:16:11.760Z,9.20
2018-10-18T05:18:42.487Z,9.18
2018-10-18T05:21:12.625Z,9.15
2018-10-18T05:23:43.413Z,9.14
2018-10-18T05:26:14.498Z,9.14
2018-10-18T05:28:45.854Z,9.13
2018-10-18T05:31:17.945Z,9.12
2018-10-18T05:33:48.248Z,9.08
2018-10-18T05:36:19.226Z,8.96
2018-10-18T05:38:49.634Z,8.96
2018-10-18T05:41:20.409Z,8.98
2018-10-18T05:43:51.868Z,9.00
2018-10-18T05:46:22.996Z,9.01
2018-10-18T05:48:53.666Z,9.01
2018-10-18T05:51:24.705Z,8.95
2018-10-18T05:53:55.567Z,8.94
2018-10-18T05:56:26.550Z,8.92
2018-10-18T05:58:57.385Z,8.93
2018-10-18T06:01:28.914Z,8.94
2018-10-18T06:03:59.721Z,8.95
2018-10-18T06:06:30.628Z,8.96
2018-10-18T06:09:01.353Z,8.95
2018-10-18T06:11:33.688Z,8.93
2018-10-18T06:14:03.520Z,8.92
2018-10-18T06:16:34.401Z,8.93
2018-10-18T06:19:05.711Z,8.94
2018-10-18T06:21:37.562Z,8.94
2018-10-18T06:24:07.411Z,8.95
2018-10-18T06:26:38.635Z,8.93
2018-10-18T06:29:09.536Z,8.95
2018-10-18T06:31:41.249Z,8.96
2018-10-18T06:34:11.749Z,8.96
2018-10-18T06:36:42.638Z,8.96
2018-10-18T06:39:13.819Z,8.95
2018-10-18T06:41:44.711Z,8.95
2018-10-18T06:44:15.461Z,8.94
2018-10-18T06:46:46.958Z,8.96
2018-10-18T06:49:17.706Z,8.95
2018-10-18T06:51:48.787Z,8.96
2018-10-18T06:54:19.742Z,8.97
2018-10-18T06:56:50.904Z,8.97
2018-10-18T06:59:21.657Z,8.96
2018-10-18T07:01:54.430Z,8.96
2018-10-18T07:04:24.124Z,8.99
2018-10-18T07:06:54.632Z,9.03
2018-10-18T07:09:25.393Z,9.05
2018-10-18T07:11:56.620Z,9.07
2018-10-18T07:14:27.415Z,9.11
2018-10-18T07:16:58.592Z,9.13
2018-10-18T07:19:29.396Z,9.14
2018-10-18T07:22:00.899Z,9.17
2018-10-18T07:24:31.837Z,9.19
2018-10-18T07:27:03.160Z,9.18
2018-10-18T07:42:40.727Z,9.36
2018-10-18T07:45:11.736Z,9.55
2018-10-18T07:47:41.873Z,9.68
2018-10-18T07:50:12.161Z,9.82
2018-10-18T07:52:41.915Z,9.95
2018-10-18T07:55:11.947Z,10.09
2018-10-18T07:57:41.917Z,10.21
2018-10-18T08:00:14.885Z,10.36
2018-10-18T08:02:45.380Z,10.37
2018-10-18T08:05:15.594Z,10.49
2018-10-18T08:07:45.584Z,10.57
2018-10-18T08:10:19.512Z,10.75
2018-10-18T08:12:49.729Z,10.82
2018-10-18T08:15:19.843Z,10.84
2018-10-18T08:17:49.634Z,10.98
2018-10-18T08:20:19.586Z,11.19
2018-10-18T08:22:49.525Z,11.40
2018-10-18T08:25:19.318Z,11.57
2018-10-18T08:27:49.589Z,11.76
2018-10-18T08:30:19.554Z,11.93
2018-10-18T08:32:49.712Z,12.09
2018-10-18T08:35:23.556Z,12.28
2018-10-18T08:37:53.925Z,12.37
2018-10-18T08:40:23.899Z,12.53
2018-10-18T08:42:53.934Z,12.66
2018-10-18T08:45:23.659Z,12.71
2018-10-18T08:47:53.600Z,12.77
2018-10-18T08:50:23.757Z,12.78
2018-10-18T08:52:53.574Z,12.86
2018-10-18T08:55:23.535Z,13.02
2018-10-18T08:57:53.546Z,13.18
2018-10-18T09:00:23.734Z,13.35
2018-10-18T09:02:53.576Z,13.52
2018-10-18T09:05:23.548Z,13.59
2018-10-18T09:07:53.660Z,13.66
2018-10-18T09:10:23.531Z,13.72
2018-10-18T09:12:53.851Z,13.75
2018-10-18T09:15:23.738Z,13.78
2018-10-18T09:17:53.562Z,13.91
2018-10-18T09:20:23.526Z,13.62
2018-10-18T09:22:53.572Z,14.15
2018-10-18T09:25:23.417Z,14.33
2018-10-18T09:27:53.457Z,14.48
2018-10-18T09:30:23.671Z,14.55
2018-10-18T09:32:53.542Z,14.62
2018-10-18T09:35:23.572Z,14.69
2018-10-18T09:37:53.540Z,14.97
2018-10-18T09:40:23.647Z,15.17
2018-10-18T09:42:53.625Z,15.34
2018-10-18T09:45:23.502Z,15.70
2018-10-18T09:47:53.738Z,15.77
2018-10-18T09:50:23.708Z,15.96
2018-10-18T09:52:53.596Z,16.17
2018-10-18T09:55:23.704Z,16.26
2018-10-18T09:57:53.693Z,16.39
2018-10-18T10:00:28.634Z,16.57
2018-10-18T10:03:03.382Z,16.63
2018-10-18T10:05:33.448Z,16.71
2018-10-18T10:08:03.521Z,16.77
2018-10-18T10:10:33.685Z,16.88
2018-10-18T10:13:03.609Z,17.06
2018-10-18T10:15:33.655Z,17.30
2018-10-18T10:18:03.888Z,17.38
2018-10-18T10:20:33.677Z,17.55
2018-10-18T10:23:04.369Z,17.73
2018-10-18T10:25:34.401Z,17.93
2018-10-18T10:28:04.657Z,18.06
2018-10-18T10:30:34.529Z,18.23
2018-10-18T10:33:04.903Z,18.43
2018-10-18T10:35:34.948Z,18.65
2018-10-18T10:38:04.932Z,18.87
2018-10-18T10:40:34.717Z,19.11
2018-10-18T10:43:04.625Z,19.20
2018-10-18T10:45:34.551Z,19.25
2018-10-18T10:48:04.569Z,19.51
2018-10-18T10:50:34.545Z,19.80
2018-10-18T10:53:04.597Z,19.93
2018-10-18T10:55:34.539Z,20.03
2018-10-18T10:58:04.644Z,20.18
2018-10-18T11:01:10.875Z,20.35
2018-10-18T11:03:41.801Z,20.64
2018-10-18T11:06:12.083Z,20.75
2018-10-18T11:08:42.337Z,20.90
2018-10-18T11:11:13.217Z,21.05
2018-10-18T11:13:42.968Z,21.26
2018-10-18T11:16:12.875Z,21.53
2018-10-18T11:18:43.229Z,21.63
2018-10-18T11:21:14.620Z,21.80
2018-10-18T11:23:44.659Z,21.89
2018-10-18T11:26:14.670Z,21.94
2018-10-18T11:28:44.524Z,22.05
2018-10-18T11:31:14.618Z,22.22
2018-10-18T11:33:44.531Z,22.34
2018-10-18T11:36:14.770Z,22.43
2018-10-18T11:38:44.782Z,22.55
2018-10-18T11:41:14.593Z,22.67
2018-10-18T11:43:44.477Z,22.82
2018-10-18T11:46:14.485Z,22.97
2018-10-18T11:48:44.702Z,23.00
2018-10-18T11:51:14.448Z,23.12
2018-10-18T11:53:44.659Z,23.21
2018-10-18T11:56:14.717Z,23.35
2018-10-18T11:58:44.617Z,23.40
2018-10-18T12:01:15.224Z,23.50
2018-10-18T12:03:45.337Z,23.64
2018-10-18T12:06:15.314Z,23.63
2018-10-18T12:11:14.155Z,23.81
2018-10-18T12:13:44.389Z,23.93
2018-10-18T12:16:14.380Z,24.07
2018-10-18T12:18:44.464Z,24.02
2018-10-18T12:21:14.475Z,24.00
2018-10-18T12:23:44.689Z,24.09
2018-10-18T12:26:14.542Z,24.10
2018-10-18T12:28:44.481Z,24.26
2018-10-18T12:31:14.525Z,24.33
2018-10-18T12:33:44.500Z,24.43
2018-10-18T12:36:14.705Z,24.61
2018-10-18T12:38:44.929Z,24.71
2018-10-18T12:41:15.646Z,24.84
2018-10-18T12:43:45.674Z,24.79
2018-10-18T12:46:15.448Z,24.92
2018-10-18T12:48:45.573Z,24.88
2018-10-18T12:51:16.443Z,24.97
2018-10-18T12:53:47.117Z,25.12
2018-10-18T12:56:18.248Z,25.14
2018-10-18T12:58:49.206Z,25.27
2018-10-18T13:01:19.701Z,25.36
2018-10-18T13:03:50.029Z,25.32
2018-10-18T13:06:20.459Z,25.46
2018-10-18T13:08:51.489Z,25.42
2018-10-18T13:11:22.273Z,25.50
2018-10-18T13:13:52.551Z,25.47
2018-10-18T13:16:23.096Z,25.53
2018-10-18T13:18:53.611Z,25.42
2018-10-18T13:21:24.159Z,25.14
2018-10-18T13:23:54.436Z,24.92
2018-10-18T13:26:25.226Z,25.03
2018-10-18T13:28:55.603Z,25.15
2018-10-18T13:31:26.318Z,25.27
2018-10-18T13:33:56.716Z,25.31
2018-10-18T13:36:26.616Z,25.33
2018-10-18T13:38:56.570Z,25.44
2018-10-18T13:41:26.858Z,25.53
2018-10-18T13:43:56.711Z,25.57
2018-10-18T13:46:26.538Z,25.60
2018-10-18T13:48:56.574Z,25.61
2018-10-18T13:51:26.595Z,25.56
2018-10-18T13:53:56.624Z,25.51
2018-10-18T13:56:26.650Z,25.56
2018-10-18T13:58:56.462Z,25.39
2018-10-18T14:01:27.018Z,25.42
2018-10-18T14:03:56.802Z,25.48
2018-10-18T14:06:26.769Z,25.33
2018-10-18T14:08:56.618Z,25.38
2018-10-18T14:11:26.477Z,25.39
2018-10-18T14:13:56.618Z,25.34
2018-10-18T14:16:26.608Z,25.35
2018-10-18T14:18:56.468Z,25.37
2018-10-18T14:21:26.613Z,25.35
2018-10-18T14:23:56.506Z,25.17
2018-10-18T14:26:26.626Z,25.10
2018-10-18T14:28:56.940Z,25.12
2018-10-18T14:31:27.170Z,25.08
2018-10-18T14:33:57.117Z,25.07
2018-10-18T14:36:26.842Z,24.92
2018-10-18T14:38:56.629Z,24.76
2018-10-18T14:41:26.945Z,24.71
2018-10-18T14:43:57.495Z,24.57
2018-10-18T14:46:27.507Z,24.54
2018-10-18T14:48:57.665Z,24.39
2018-10-18T14:51:27.623Z,24.33
2018-10-18T14:53:57.601Z,24.27
2018-10-18T14:56:27.405Z,24.17
2018-10-18T14:58:57.239Z,24.09
2018-10-18T15:01:27.131Z,23.98
2018-10-18T15:03:56.846Z,23.84
2018-10-18T15:06:26.777Z,23.75
2018-10-18T15:08:56.874Z,23.63
2018-10-18T15:11:26.813Z,23.54
2018-10-18T15:13:56.719Z,23.42
2018-10-18T15:16:27.265Z,23.33
2018-10-18T15:18:57.051Z,23.25
2018-10-18T15:21:27.495Z,23.14
2018-10-18T15:23:57.256Z,23.03
2018-10-18T15:26:28.130Z,22.93
2018-10-18T15:28:59.071Z,22.84
2018-10-18T15:31:29.967Z,22.75
2018-10-18T15:34:01.474Z,22.63
2018-10-18T15:36:32.129Z,22.52
2018-10-18T15:39:03.699Z,22.42
2018-10-18T15:41:34.424Z,22.36
2018-10-18T15:44:05.441Z,22.27
2018-10-18T15:46:36.344Z,22.20
2018-10-18T15:49:06.811Z,22.14
2018-10-18T15:51:42.170Z,22.11
2018-10-18T15:54:12.736Z,22.05
2018-10-18T15:56:43.293Z,21.99
2018-10-18T16:11:30.381Z,21.87
2018-10-18T16:14:00.974Z,21.67
2018-10-18T16:16:31.172Z,21.55
2018-10-18T16:19:01.011Z,21.43
2018-10-18T16:21:31.064Z,21.34
2018-10-18T16:24:00.854Z,21.26
2018-10-18T16:26:31.154Z,21.14
2018-10-18T16:29:01.495Z,21.00
2018-10-18T16:31:31.836Z,20.87
2018-10-18T16:34:01.852Z,20.79
2018-10-18T16:36:32.056Z,20.70
2018-10-18T16:39:02.118Z,20.57
2018-10-18T16:41:32.759Z,20.47
2018-10-18T16:44:02.779Z,20.37
2018-10-18T16:46:32.954Z,20.28
2018-10-18T16:49:03.356Z,20.26
2018-10-18T16:51:33.130Z,20.22
2018-10-18T16:54:03.457Z,20.20
2018-10-18T16:56:33.453Z,20.16
2018-10-18T17:01:39.421Z,19.53
2018-10-18T17:04:09.398Z,19.30
2018-10-18T17:06:39.417Z,19.11
2018-10-18T17:09:11.076Z,18.93
2018-10-18T17:11:41.568Z,18.79
2018-10-18T17:14:12.325Z,18.67
2018-10-18T17:16:42.985Z,18.50
2018-10-18T17:19:12.948Z,18.34
2018-10-18T17:24:18.816Z,18.09
2018-10-18T17:26:48.883Z,18.00
2018-10-18T17:29:19.613Z,17.89
2018-10-18T17:31:54.236Z,17.81
2018-10-18T17:37:00.437Z,17.67
2018-10-18T17:39:31.418Z,17.57
2018-10-18T17:42:01.786Z,17.50
2018-10-18T17:44:31.809Z,17.41
2018-10-18T17:47:11.959Z,17.16
2018-10-18T17:49:41.917Z,17.21
2018-10-18T17:52:11.992Z,17.15
2018-10-18T17:54:42.008Z,17.05
2018-10-18T17:57:11.877Z,16.99
2018-10-18T17:59:47.004Z,16.92
2018-10-18T18:02:18.113Z,16.87
2018-10-18T18:04:49.613Z,16.79
2018-10-18T18:07:24.929Z,16.74
2018-10-18T18:09:55.078Z,16.67
2018-10-18T18:12:25.149Z,16.59
2018-10-18T18:14:56.023Z,16.55
2018-10-18T18:17:29.222Z,16.47
2018-10-18T18:19:59.640Z,16.42
2018-10-18T18:22:33.956Z,16.36
2018-10-18T18:25:06.406Z,16.29
2018-10-18T18:27:36.566Z,16.22
2018-10-18T18:30:10.082Z,16.16
2018-10-18T18:32:41.001Z,16.10
2018-10-18T18:35:11.153Z,16.04
2018-10-18T18:37:41.098Z,15.98
2018-10-18T18:40:16.975Z,15.90
2018-10-18T18:42:47.034Z,15.84
2018-10-18T18:45:24.231Z,15.77
2018-10-18T18:47:56.122Z,15.71
2018-10-18T18:50:26.200Z,15.65
2018-10-18T18:52:56.136Z,15.58
2018-10-18T18:55:26.893Z,15.53
2018-10-18T18:58:02.256Z,15.48
2018-10-18T19:00:32.934Z,15.43
2018-10-18T19:03:02.865Z,15.38
2018-10-18T19:05:33.053Z,15.34
2018-10-18T19:08:03.210Z,15.25
2018-10-18T19:10:33.126Z,15.15
2018-10-18T19:13:02.968Z,15.11
2018-10-18T19:15:33.234Z,15.07
2018-10-18T19:18:03.117Z,15.02
2018-10-18T19:20:33.428Z,14.96
2018-10-18T19:23:03.834Z,14.91
2018-10-18T19:25:34.092Z,14.89
2018-10-18T19:28:04.142Z,14.83
2018-10-18T19:30:33.983Z,14.77
2018-10-18T19:33:03.910Z,14.71
2018-10-18T19:35:33.785Z,14.68
2018-10-18T19:38:05.636Z,14.60
2018-10-18T19:40:40.870Z,14.58
2018-10-18T19:43:10.836Z,14.54
2018-10-18T19:45:40.975Z,14.51
2018-10-18T19:48:11.016Z,14.45
2018-10-18T19:50:41.005Z,14.41
2018-10-18T19:53:11.190Z,14.35
2018-10-18T19:55:41.093Z,14.32
2018-10-18T19:58:11.010Z,14.30
2018-10-18T20:00:54.662Z,14.26
2018-10-18T20:03:24.721Z,14.22
2018-10-18T20:05:54.970Z,14.19
2018-10-18T20:08:24.806Z,14.13
2018-10-18T20:10:54.882Z,14.08
2018-10-18T20:13:24.746Z,14.06
2018-10-18T20:15:54.767Z,14.02
2018-10-18T20:18:24.865Z,14.00
2018-10-18T20:20:55.138Z,13.96
2018-10-18T20:23:25.179Z,13.93
2018-10-18T20:25:55.339Z,13.89
2018-10-18T20:28:25.157Z,13.88
2018-10-18T20:30:55.601Z,13.85
2018-10-18T20:33:25.978Z,13.84
2018-10-18T20:35:55.943Z,13.82
2018-10-18T20:38:25.758Z,13.81
2018-10-18T20:40:55.817Z,13.79
2018-10-18T20:43:25.774Z,13.75
2018-10-18T20:45:56.057Z,13.69
2018-10-18T20:48:25.973Z,13.66
2018-10-18T20:50:55.849Z,13.63
2018-10-18T20:53:25.717Z,13.62
2018-10-18T20:55:55.705Z,13.55
2018-10-18T20:58:25.671Z,13.53
2018-10-18T21:00:56.039Z,13.49
2018-10-18T21:03:25.865Z,13.47
2018-10-18T21:05:56.157Z,13.44
2018-10-18T21:08:26.224Z,13.39
2018-10-18T21:10:56.159Z,13.37
2018-10-18T21:13:26.275Z,13.34
2018-10-18T21:15:56.086Z,13.32
2018-10-18T21:18:25.863Z,13.30
2018-10-18T21:20:55.864Z,13.28
2018-10-18T21:23:25.932Z,13.25
2018-10-18T21:25:55.911Z,13.21
2018-10-18T21:28:25.813Z,13.14
2018-10-18T21:30:55.744Z,13.10
2018-10-18T21:33:26.708Z,13.06
2018-10-18T21:35:57.426Z,13.05
2018-10-18T21:38:27.605Z,13.02
2018-10-18T21:40:57.596Z,12.98
2018-10-18T21:43:28.105Z,12.96
2018-10-18T21:45:59.765Z,12.95
2018-10-18T21:48:30.378Z,12.93
2018-10-18T21:51:00.395Z,12.91
2018-10-18T21:53:30.263Z,12.90
2018-10-18T21:56:00.082Z,12.86
2018-10-18T21:58:30.562Z,12.84
2018-10-18T22:01:00.458Z,12.83
2018-10-18T22:03:30.570Z,12.83
2018-10-18T22:06:00.540Z,12.81
2018-10-18T22:08:30.481Z,12.76
2018-10-18T22:11:00.425Z,12.71
2018-10-18T22:13:31.530Z,12.13
2018-10-18T22:16:01.648Z,12.64
2018-10-18T22:18:32.626Z,12.63
2018-10-18T22:21:02.626Z,12.61
2018-10-18T22:23:32.636Z,12.59
2018-10-18T22:26:03.631Z,12.58
2018-10-18T22:28:34.522Z,12.55
2018-10-18T22:31:06.188Z,12.55
2018-10-18T22:33:36.793Z,12.50
2018-10-18T22:36:07.786Z,12.48
2018-10-18T22:38:38.610Z,12.47
2018-10-18T22:41:10.822Z,12.44
2018-10-18T22:43:40.837Z,12.42
2018-10-18T22:46:11.953Z,12.40
2018-10-18T22:48:42.871Z,12.39
2018-10-18T22:51:13.848Z,12.39
2018-10-18T22:53:44.739Z,12.37
2018-10-18T22:56:16.081Z,12.35
2018-10-18T22:58:46.665Z,12.31
2018-10-18T23:01:18.023Z,12.26
2018-10-18T23:03:48.674Z,12.24
2018-10-18T23:06:20.068Z,12.22
2018-10-18T23:08:50.622Z,12.19
2018-10-18T23:11:21.515Z,12.16
2018-10-18T23:13:52.397Z,12.14
2018-10-18T23:16:23.779Z,12.10
2018-10-18T23:18:54.652Z,12.08
2018-10-18T23:21:25.598Z,12.06
2018-10-18T23:23:56.479Z,12.04
2018-10-18T23:26:27.809Z,12.02
2018-10-18T23:28:59.712Z,12.01
2018-10-18T23:31:29.625Z,11.98
2018-10-18T23:34:00.478Z,11.97
2018-10-18T23:36:31.563Z,11.96
2018-10-18T23:39:03.815Z,11.96
2018-10-18T23:41:34.381Z,11.95
2018-10-18T23:44:04.593Z,11.94
2018-10-18T23:46:35.608Z,11.93
2018-10-18T23:49:07.019Z,11.93
2018-10-18T23:51:37.718Z,11.90
2018-10-18T23:54:08.546Z,11.89
2018-10-18T23:56:39.513Z,11.89
2018-10-18T23:59:10.797Z,11.86
